Time;durP1;ratioP1;P1;durP2;ratioP2;P2;SDS_P1;SDS_P2;PMS_P1;PMS_P2;Temp;Humidity;BMP_temperature;BMP_pressure;BME280_temperature;BME280_humidity;BME280_pressure;Samples;Min_cycle;Max_cycle;Signal;HPM_P1;HPM_P2
2023/12/20 00:00:41;;;;;;;38.28;16.65;;;;;;;;;;6289229;28;20044;-72
2023/12/20 00:03:43;;;;;;;30.40;15.38;;;;;;;;;;6300216;28;20414;-72
2023/12/20 00:06:46;;;;;;;25.42;13.90;;;;;;;;;;6318409;28;20100;-72
2023/12/20 00:09:48;;;;;;;26.23;13.32;;;;;;;;;;6311778;28;20051;-72
2023/12/20 00:12:50;;;;;;;27.77;12.68;;;;;;;;;;6293731;28;20052;-72
2023/12/20 00:15:53;;;;;;;26.23;12.18;;;;;;;;;;6299789;28;20082;-72
2023/12/20 00:18:55;;;;;;;27.80;13.77;;;;;;;;;;6288626;28;20052;-72
2023/12/20 00:21:57;;;;;;;25.67;14.18;;;;;;;;;;6317553;28;20046;-72
2023/12/20 00:24:59;;;;;;;26.85;14.48;;;;;;;;;;6294532;28;20047;-72
2023/12/20 00:28:02;;;;;;;23.05;12.85;;;;;;;;;;6290783;28;20044;-73
2023/12/20 00:31:04;;;;;;;19.92;11.32;;;;;;;;;;6292100;28;20044;-72
2023/12/20 00:34:06;;;;;;;23.50;12.98;;;;;;;;;;6316197;28;20036;-72
2023/12/20 00:37:09;;;;;;;24.48;12.82;;;;;;;;;;6300983;28;20073;-73
2023/12/20 00:40:11;;;;;;;27.92;11.95;;;;;;;;;;6292068;28;20048;-73
2023/12/20 00:43:13;;;;;;;26.95;16.00;;;;;;;;;;6295347;28;20460;-73
2023/12/20 00:46:15;;;;;;;24.05;17.30;;;;;;;;;;6303086;28;20036;-72
2023/12/20 00:49:17;;;;;;;47.97;27.45;;;;;;;;;;6301051;28;20051;-71
2023/12/20 00:52:22;;;;;;;30.80;17.23;;;;;;;;;;6295548;28;20048;-72
2023/12/20 00:55:24;;;;;;;36.05;20.63;;;;;;;;;;6310340;28;20193;-72
2023/12/20 00:58:27;;;;;;;36.58;21.30;;;;;;;;;;6285682;28;20169;-72
2023/12/20 01:01:30;;;;;;;35.55;20.52;;;;;;;;;;6296817;28;20051;-71
2023/12/20 01:04:32;;;;;;;33.22;20.85;;;;;;;;;;6304088;28;20526;-72
2023/12/20 01:07:34;;;;;;;30.88;18.80;;;;;;;;;;6308838;28;20558;-71
2023/12/20 01:10:36;;;;;;;49.90;24.23;;;;;;;;;;6307884;28;20134;-73
2023/12/20 01:13:38;;;;;;;42.92;20.45;;;;;;;;;;6283759;28;20055;-72
2023/12/20 01:16:40;;;;;;;50.53;19.48;;;;;;;;;;6311003;28;20040;-72
2023/12/20 01:19:42;;;;;;;35.15;20.13;;;;;;;;;;6283577;28;20051;-72
2023/12/20 01:22:45;;;;;;;39.47;20.50;;;;;;;;;;6306911;28;20048;-72
2023/12/20 01:25:48;;;;;;;42.03;22.85;;;;;;;;;;6285861;28;20056;-72
2023/12/20 01:28:50;;;;;;;36.83;21.52;;;;;;;;;;6294712;28;20040;-72
2023/12/20 01:31:52;;;;;;;27.17;14.50;;;;;;;;;;6289655;28;20044;-72
2023/12/20 01:34:55;;;;;;;38.03;17.40;;;;;;;;;;6311347;28;20048;-71
2023/12/20 01:38:03;;;;;;;27.63;17.52;;;;;;;;;;6304180;28;20776;-72
2023/12/20 01:41:05;;;;;;;36.83;19.30;;;;;;;;;;6296878;28;20165;-72
2023/12/20 01:44:07;;;;;;;33.35;18.38;;;;;;;;;;6302424;28;20082;-72
2023/12/20 01:47:09;;;;;;;32.78;17.88;;;;;;;;;;6310251;28;20422;-72
2023/12/20 01:50:11;;;;;;;37.50;19.52;;;;;;;;;;6295107;28;20696;-72
2023/12/20 01:53:15;;;;;;;35.35;19.60;;;;;;;;;;6272657;28;20048;-72
2023/12/20 01:56:17;;;;;;;39.50;20.65;;;;;;;;;;6309080;28;20040;-72
2023/12/20 01:59:20;;;;;;;28.38;18.67;;;;;;;;;;6306633;28;20160;-72
2023/12/20 02:02:22;;;;;;;28.52;16.55;;;;;;;;;;6293984;28;20908;-72
2023/12/20 02:05:25;;;;;;;30.50;18.10;;;;;;;;;;6282435;28;20130;-72
2023/12/20 02:08:27;;;;;;;31.00;18.30;;;;;;;;;;6283594;28;20055;-73
2023/12/20 02:11:29;;;;;;;34.17;17.33;;;;;;;;;;6296202;28;20054;-72
2023/12/20 02:14:31;;;;;;;34.63;19.30;;;;;;;;;;6284409;28;20044;-72
2023/12/20 02:17:33;;;;;;;38.80;16.92;;;;;;;;;;6314528;28;20040;-74
2023/12/20 02:20:36;;;;;;;38.75;20.80;;;;;;;;;;6292454;28;20052;-73
2023/12/20 02:23:38;;;;;;;36.17;18.13;;;;;;;;;;6303829;28;20051;-73
2023/12/20 02:26:40;;;;;;;37.45;17.77;;;;;;;;;;6291700;28;20060;-73
2023/12/20 02:29:48;;;;;;;42.28;18.85;;;;;;;;;;6292133;28;20047;-73
2023/12/20 02:32:50;;;;;;;32.42;17.52;;;;;;;;;;6318964;28;20044;-73
2023/12/20 02:35:52;;;;;;;34.78;18.38;;;;;;;;;;6289615;28;20665;-73
2023/12/20 02:38:54;;;;;;;39.78;18.40;;;;;;;;;;6309926;28;20190;-73
2023/12/20 02:41:56;;;;;;;39.25;20.77;;;;;;;;;;6290012;28;20122;-72
2023/12/20 02:44:58;;;;;;;43.28;21.00;;;;;;;;;;6278551;28;20047;-73
2023/12/20 02:48:00;;;;;;;38.50;18.33;;;;;;;;;;6314865;28;20036;-73
2023/12/20 02:51:03;;;;;;;37.20;19.38;;;;;;;;;;6309798;28;20044;-72
2023/12/20 02:54:05;;;;;;;31.25;17.13;;;;;;;;;;6294088;28;20082;-73
2023/12/20 02:57:07;;;;;;;32.17;16.90;;;;;;;;;;6258867;28;20079;-72
2023/12/20 03:00:10;;;;;;;38.15;20.15;;;;;;;;;;6304204;28;20454;-73
2023/12/20 03:03:12;;;;;;;29.45;17.02;;;;;;;;;;6280138;28;20430;-73
2023/12/20 03:06:18;;;;;;;55.70;26.17;;;;;;;;;;6314664;28;20430;-72
2023/12/20 03:09:20;;;;;;;36.25;19.10;;;;;;;;;;6305811;28;20052;-72
2023/12/20 03:12:23;;;;;;;55.42;24.98;;;;;;;;;;6297045;28;20048;-72
2023/12/20 03:15:25;;;;;;;36.45;20.20;;;;;;;;;;6312577;28;20041;-72
2023/12/20 03:18:28;;;;;;;49.83;24.60;;;;;;;;;;6296915;28;20846;-72
2023/12/20 03:21:30;;;;;;;40.03;20.35;;;;;;;;;;6287463;28;20723;-72
2023/12/20 03:24:32;;;;;;;52.95;26.05;;;;;;;;;;6329096;27;20455;-72
2023/12/20 03:27:37;;;;;;;50.83;27.13;;;;;;;;;;6271532;28;20067;-72
2023/12/20 03:30:39;;;;;;;61.67;27.90;;;;;;;;;;6311387;28;20496;-73
2023/12/20 03:33:41;;;;;;;46.33;22.50;;;;;;;;;;6288424;28;20059;-72
2023/12/20 03:36:44;;;;;;;41.45;23.25;;;;;;;;;;6308732;28;20879;-72
2023/12/20 03:39:46;;;;;;;34.88;16.48;;;;;;;;;;6319714;28;20114;-72
2023/12/20 03:42:48;;;;;;;41.30;17.55;;;;;;;;;;6295090;28;20585;-73
2023/12/20 03:45:50;;;;;;;33.72;17.23;;;;;;;;;;6296812;28;20028;-73
2023/12/20 03:48:53;;;;;;;39.05;17.55;;;;;;;;;;6312420;28;20240;-72
2023/12/20 03:51:55;;;;;;;33.92;14.50;;;;;;;;;;6285967;28;20442;-73
2023/12/20 03:54:58;;;;;;;31.88;16.13;;;;;;;;;;6314633;28;20652;-73
2023/12/20 03:58:00;;;;;;;34.22;16.05;;;;;;;;;;6270648;28;20048;-73
2023/12/20 04:01:02;;;;;;;45.30;19.42;;;;;;;;;;6263385;28;20815;-73
2023/12/20 04:04:04;;;;;;;70.68;32.15;;;;;;;;;;6279610;28;20112;-73
2023/12/20 04:07:07;;;;;;;37.58;17.67;;;;;;;;;;6290872;28;20160;-73
2023/12/20 04:10:09;;;;;;;50.85;23.92;;;;;;;;;;6297482;28;20576;-73
2023/12/20 04:13:11;;;;;;;29.55;16.80;;;;;;;;;;6309678;28;20047;-73
2023/12/20 04:16:17;;;;;;;31.30;15.07;;;;;;;;;;6316679;28;20055;-73
2023/12/20 04:19:19;;;;;;;26.17;15.65;;;;;;;;;;6286447;28;20056;-73
2023/12/20 04:22:21;;;;;;;40.38;19.20;;;;;;;;;;6311912;28;20581;-73
2023/12/20 04:25:23;;;;;;;40.45;18.17;;;;;;;;;;6311822;28;20036;-72
2023/12/20 04:28:25;;;;;;;43.90;20.23;;;;;;;;;;6305857;28;20056;-73
2023/12/20 04:31:28;;;;;;;43.35;19.55;;;;;;;;;;6306156;28;20043;-73
2023/12/20 04:34:30;;;;;;;39.10;20.08;;;;;;;;;;6313005;28;20044;-72
2023/12/20 04:37:32;;;;;;;55.10;24.95;;;;;;;;;;6306290;28;20470;-73
2023/12/20 04:40:34;;;;;;;59.05;28.02;;;;;;;;;;6315133;28;20566;-75
2023/12/20 04:43:37;;;;;;;50.88;23.95;;;;;;;;;;6305458;28;20048;-73
2023/12/20 04:46:39;;;;;;;39.92;18.27;;;;;;;;;;6290483;28;20889;-73
2023/12/20 04:49:42;;;;;;;42.60;17.77;;;;;;;;;;6289950;28;20051;-72
2023/12/20 04:52:44;;;;;;;44.45;20.88;;;;;;;;;;6310319;28;20054;-73
2023/12/20 04:55:46;;;;;;;34.40;18.67;;;;;;;;;;6314881;28;20036;-73
2023/12/20 04:58:48;;;;;;;38.05;19.08;;;;;;;;;;6312591;28;20052;-72
2023/12/20 05:01:50;;;;;;;37.15;20.02;;;;;;;;;;6327886;28;20059;-73
2023/12/20 05:04:52;;;;;;;32.90;16.95;;;;;;;;;;6277629;28;20438;-72
2023/12/20 05:07:57;;;;;;;36.88;18.45;;;;;;;;;;6268118;28;20048;-73
2023/12/20 05:10:59;;;;;;;38.65;16.20;;;;;;;;;;6288793;28;20124;-72
2023/12/20 05:14:01;;;;;;;34.35;16.63;;;;;;;;;;6290189;28;20047;-73
2023/12/20 05:17:03;;;;;;;43.25;16.55;;;;;;;;;;6311265;28;20688;-73
2023/12/20 05:20:06;;;;;;;39.17;15.30;;;;;;;;;;6287067;28;20647;-73
2023/12/20 05:23:08;;;;;;;45.05;15.77;;;;;;;;;;6289354;28;20044;-73
2023/12/20 05:26:10;;;;;;;41.05;14.30;;;;;;;;;;6316766;28;20040;-72
2023/12/20 05:29:12;;;;;;;31.98;13.32;;;;;;;;;;6277207;28;20060;-73
2023/12/20 05:32:15;;;;;;;36.17;15.73;;;;;;;;;;6311773;28;20593;-71
2023/12/20 05:35:23;;;;;;;30.73;16.25;;;;;;;;;;6298030;28;20051;-72
2023/12/20 05:38:25;;;;;;;26.80;15.38;;;;;;;;;;6312566;28;20555;-72
2023/12/20 05:41:28;;;;;;;37.85;16.63;;;;;;;;;;6312585;28;20121;-73
2023/12/20 05:44:30;;;;;;;31.30;15.05;;;;;;;;;;6315733;28;20589;-72
2023/12/20 05:47:32;;;;;;;27.55;14.32;;;;;;;;;;6292155;28;20507;-72
2023/12/20 05:50:35;;;;;;;37.72;18.60;;;;;;;;;;6324222;28;20059;-73
2023/12/20 05:53:37;;;;;;;40.95;19.45;;;;;;;;;;6292068;28;20138;-72
2023/12/20 05:56:39;;;;;;;37.10;18.40;;;;;;;;;;6309267;28;20032;-72
2023/12/20 05:59:41;;;;;;;46.40;17.90;;;;;;;;;;6307885;28;20547;-72
2023/12/20 06:02:43;;;;;;;32.97;13.80;;;;;;;;;;6312797;28;20129;-72
2023/12/20 06:05:45;;;;;;;19.45;9.98;;;;;;;;;;6294355;28;20430;-72
2023/12/20 06:08:48;;;;;;;36.60;13.55;;;;;;;;;;6309265;28;20078;-74
2023/12/20 06:11:50;;;;;;;30.35;14.95;;;;;;;;;;6294278;28;20513;-73
2023/12/20 06:14:52;;;;;;;27.20;12.50;;;;;;;;;;6303161;28;20466;-74
2023/12/20 06:17:54;;;;;;;34.53;16.30;;;;;;;;;;6302717;28;20056;-73
2023/12/20 06:20:56;;;;;;;36.88;16.55;;;;;;;;;;6285379;28;20048;-71
2023/12/20 06:23:59;;;;;;;38.55;19.98;;;;;;;;;;6306903;28;20185;-72
2023/12/20 06:27:01;;;;;;;28.38;11.73;;;;;;;;;;6291665;28;20048;-73
2023/12/20 06:30:06;;;;;;;53.00;22.23;;;;;;;;;;6290847;28;20789;-72
2023/12/20 06:33:09;;;;;;;37.47;18.70;;;;;;;;;;6309659;28;20519;-73
2023/12/20 06:36:15;;;;;;;32.72;15.88;;;;;;;;;;6290841;28;20162;-73
2023/12/20 06:39:17;;;;;;;25.17;13.98;;;;;;;;;;6307168;28;20051;-73
2023/12/20 06:42:19;;;;;;;28.85;13.10;;;;;;;;;;6306745;28;20108;-72
2023/12/20 06:45:21;;;;;;;29.70;13.65;;;;;;;;;;6294949;28;20047;-73
2023/12/20 06:48:23;;;;;;;34.17;18.02;;;;;;;;;;6313862;28;20729;-72
2023/12/20 06:51:27;;;;;;;34.72;16.77;;;;;;;;;;6302682;28;20044;-73
2023/12/20 06:54:29;;;;;;;19.92;12.77;;;;;;;;;;6298106;28;20052;-73
2023/12/20 06:57:32;;;;;;;40.08;18.60;;;;;;;;;;6295410;28;20060;-74
2023/12/20 07:00:34;;;;;;;27.13;13.95;;;;;;;;;;6296082;28;20055;-73
2023/12/20 07:03:36;;;;;;;39.53;14.93;;;;;;;;;;6273862;28;20069;-72
2023/12/20 07:06:38;;;;;;;36.53;17.10;;;;;;;;;;6296210;28;20210;-74
2023/12/20 07:09:42;;;;;;;44.38;18.92;;;;;;;;;;6311861;28;20501;-73
2023/12/20 07:12:45;;;;;;;30.52;15.55;;;;;;;;;;6260179;28;20075;-73
2023/12/20 07:15:47;;;;;;;40.80;18.80;;;;;;;;;;6312215;28;20089;-73
2023/12/20 07:18:49;;;;;;;31.85;15.90;;;;;;;;;;6306005;28;20454;-73
2023/12/20 07:21:51;;;;;;;51.85;20.88;;;;;;;;;;6302770;28;20126;-73
2023/12/20 07:24:54;;;;;;;42.13;18.42;;;;;;;;;;6308824;28;20528;-73
2023/12/20 07:27:56;;;;;;;29.48;17.65;;;;;;;;;;6278151;28;21132;-73
2023/12/20 07:30:58;;;;;;;36.88;16.08;;;;;;;;;;6293436;28;20052;-72
2023/12/20 07:34:01;;;;;;;43.85;20.20;;;;;;;;;;6294020;28;20050;-72
2023/12/20 07:37:03;;;;;;;45.78;21.83;;;;;;;;;;6276449;28;20043;-73
2023/12/20 07:40:06;;;;;;;45.70;23.17;;;;;;;;;;6293192;28;20089;-73
2023/12/20 07:43:08;;;;;;;44.78;21.55;;;;;;;;;;6287083;28;20076;-73
2023/12/20 07:46:10;;;;;;;39.53;20.80;;;;;;;;;;6310301;28;20044;-73
2023/12/20 07:49:13;;;;;;;41.42;21.25;;;;;;;;;;6302252;28;20146;-73
2023/12/20 07:52:15;;;;;;;42.33;20.20;;;;;;;;;;6320589;28;20641;-73
2023/12/20 07:55:17;;;;;;;39.83;19.92;;;;;;;;;;6290748;28;20051;-73
2023/12/20 07:58:19;;;;;;;51.10;24.65;;;;;;;;;;6322105;27;20043;-72
2023/12/20 08:01:22;;;;;;;50.25;21.55;;;;;;;;;;6265391;28;20059;-73
2023/12/20 08:04:24;;;;;;;51.25;22.92;;;;;;;;;;6294601;28;20594;-73
2023/12/20 08:07:27;;;;;;;42.50;21.98;;;;;;;;;;6319046;28;20036;-73
2023/12/20 08:10:30;;;;;;;42.83;21.08;;;;;;;;;;6310830;28;20111;-73
2023/12/20 08:13:32;;;;;;;52.60;23.50;;;;;;;;;;6308791;28;20044;-73
2023/12/20 08:16:35;;;;;;;52.40;22.17;;;;;;;;;;6303371;28;20036;-74
2023/12/20 08:19:37;;;;;;;49.08;20.00;;;;;;;;;;6309049;28;20511;-73
2023/12/20 08:22:39;;;;;;;72.55;25.50;;;;;;;;;;6312341;28;20047;-73
2023/12/20 08:25:41;;;;;;;59.03;20.83;;;;;;;;;;6297701;28;20048;-73
2023/12/20 08:28:43;;;;;;;51.67;20.05;;;;;;;;;;6321656;28;20047;-73
2023/12/20 08:31:46;;;;;;;38.80;19.52;;;;;;;;;;6306200;28;20050;-73
2023/12/20 08:34:48;;;;;;;45.85;22.75;;;;;;;;;;6281848;28;20047;-73
2023/12/20 08:37:50;;;;;;;50.40;22.08;;;;;;;;;;6311826;28;20470;-73
2023/12/20 08:40:52;;;;;;;60.85;26.63;;;;;;;;;;6300054;28;20048;-73
2023/12/20 08:43:55;;;;;;;46.95;20.75;;;;;;;;;;6279173;28;20047;-73
2023/12/20 08:46:57;;;;;;;54.50;27.58;;;;;;;;;;6296509;28;20028;-73
2023/12/20 08:50:00;;;;;;;45.75;23.40;;;;;;;;;;6278654;28;20044;-72
2023/12/20 08:53:03;;;;;;;22.70;15.27;;;;;;;;;;6271232;28;20127;-72
2023/12/20 08:56:05;;;;;;;39.63;22.33;;;;;;;;;;6312602;28;20438;-73
2023/12/20 08:59:07;;;;;;;53.08;23.45;;;;;;;;;;6325514;28;20039;-73
2023/12/20 09:02:09;;;;;;;47.97;20.80;;;;;;;;;;6314160;28;20059;-73
2023/12/20 09:05:12;;;;;;;41.63;16.92;;;;;;;;;;6310381;28;20052;-73
2023/12/20 09:08:14;;;;;;;61.38;20.90;;;;;;;;;;6326306;27;20075;-73
2023/12/20 09:11:17;;;;;;;56.00;25.83;;;;;;;;;;6276857;28;20051;-73
2023/12/20 09:14:19;;;;;;;37.63;19.20;;;;;;;;;;6299480;28;20055;-73
2023/12/20 09:17:22;;;;;;;46.95;22.55;;;;;;;;;;6286507;28;20056;-73
2023/12/20 09:20:25;;;;;;;51.33;23.48;;;;;;;;;;6288321;28;20591;-73
2023/12/20 09:23:27;;;;;;;37.85;19.27;;;;;;;;;;6273377;28;20051;-72
2023/12/20 09:26:29;;;;;;;47.30;22.77;;;;;;;;;;6310579;28;20044;-73
2023/12/20 09:29:31;;;;;;;49.13;20.83;;;;;;;;;;6301166;28;20044;-73
2023/12/20 09:32:33;;;;;;;56.65;23.60;;;;;;;;;;6320912;28;20043;-73
2023/12/20 09:35:36;;;;;;;46.38;21.55;;;;;;;;;;6285155;28;20028;-73
2023/12/20 09:38:39;;;;;;;38.53;19.75;;;;;;;;;;6334435;28;20041;-73
2023/12/20 09:41:46;;;;;;;44.25;22.45;;;;;;;;;;6296327;28;20070;-73
2023/12/20 09:44:48;;;;;;;59.28;25.60;;;;;;;;;;6317561;28;20047;-73
2023/12/20 09:47:52;;;;;;;78.22;33.30;;;;;;;;;;6299516;28;20706;-73
2023/12/20 09:50:55;;;;;;;53.80;24.83;;;;;;;;;;6300157;28;20420;-73
2023/12/20 09:53:58;;;;;;;73.60;25.30;;;;;;;;;;6280600;28;20586;-73
2023/12/20 09:57:00;;;;;;;47.88;26.25;;;;;;;;;;6314091;28;20051;-73
2023/12/20 10:00:03;;;;;;;67.30;24.67;;;;;;;;;;6299047;28;20130;-73
2023/12/20 10:03:13;;;;;;;51.33;25.85;;;;;;;;;;6285700;28;20048;-73
2023/12/20 10:06:18;;;;;;;62.78;26.60;;;;;;;;;;6287772;28;20867;-73
2023/12/20 10:09:20;;;;;;;58.78;26.10;;;;;;;;;;6289405;28;20079;-73
2023/12/20 10:12:22;;;;;;;74.90;29.00;;;;;;;;;;6308476;28;20143;-73
2023/12/20 10:15:24;;;;;;;68.32;25.40;;;;;;;;;;6315569;28;20197;-73
2023/12/20 10:18:29;;;;;;;54.15;24.10;;;;;;;;;;6324675;28;20121;-73
2023/12/20 10:21:41;;;;;;;49.53;23.73;;;;;;;;;;6321127;28;20086;-73
2023/12/20 10:24:46;;;;;;;55.75;25.20;;;;;;;;;;6312932;28;20174;-73
2023/12/20 10:27:49;;;;;;;66.68;32.65;;;;;;;;;;6298789;28;20119;-73
2023/12/20 10:30:52;;;;;;;39.30;20.05;;;;;;;;;;6295453;28;20062;-73
2023/12/20 10:33:57;;;;;;;56.15;25.25;;;;;;;;;;6325040;28;20264;-73
2023/12/20 10:36:59;;;;;;;43.03;20.95;;;;;;;;;;6300746;28;20048;-73
2023/12/20 10:40:03;;;;;;;57.50;27.38;;;;;;;;;;6299346;28;20056;-73
2023/12/20 10:43:06;;;;;;;70.30;31.08;;;;;;;;;;6300965;28;20058;-73
2023/12/20 10:46:08;;;;;;;27.25;14.43;;;;;;;;;;6312269;28;20518;-73
2023/12/20 10:49:10;;;;;;;57.00;27.83;;;;;;;;;;6305535;28;20520;-73
2023/12/20 10:52:13;;;;;;;57.08;27.17;;;;;;;;;;6280184;28;20044;-72
2023/12/20 10:55:15;;;;;;;46.08;22.50;;;;;;;;;;6326927;28;20044;-73
2023/12/20 10:58:19;;;;;;;52.17;23.42;;;;;;;;;;6332483;27;20074;-73
2023/12/20 11:01:22;;;;;;;47.53;22.88;;;;;;;;;;6275662;28;20134;-73
2023/12/20 11:04:30;;;;;;;45.35;19.20;;;;;;;;;;6293561;28;20206;-73
2023/12/20 11:07:37;;;;;;;53.53;24.33;;;;;;;;;;6303155;28;20044;-73
2023/12/20 11:10:40;;;;;;;45.55;22.33;;;;;;;;;;6291806;28;20047;-73
2023/12/20 11:13:52;;;;;;;38.72;18.27;;;;;;;;;;6299011;28;20607;-73
2023/12/20 11:17:15;;;;;;;41.20;19.83;;;;;;;;;;6296168;28;20869;-73
2023/12/20 11:20:18;;;;;;;47.97;21.48;;;;;;;;;;6293616;28;20044;-73
2023/12/20 11:23:20;;;;;;;45.72;19.13;;;;;;;;;;6295815;28;20551;-73
2023/12/20 11:26:29;;;;;;;42.53;21.40;;;;;;;;;;6321383;28;20427;-73
2023/12/20 11:29:37;;;;;;;48.22;22.95;;;;;;;;;;6262658;28;20540;-73
2023/12/20 11:32:40;;;;;;;51.25;25.55;;;;;;;;;;6320850;28;20048;-73
2023/12/20 11:35:43;;;;;;;49.20;22.15;;;;;;;;;;6285763;28;20578;-73
2023/12/20 11:38:57;;;;;;;54.42;23.42;;;;;;;;;;6297836;28;20044;-73
2023/12/20 11:42:06;;;;;;;58.17;20.88;;;;;;;;;;6282856;28;20604;-73
2023/12/20 11:45:15;;;;;;;60.00;25.60;;;;;;;;;;6315573;28;20040;-73
2023/12/20 11:48:17;;;;;;;49.30;24.67;;;;;;;;;;6314650;28;20032;-73
2023/12/20 11:51:19;;;;;;;56.75;22.77;;;;;;;;;;6312016;28;20059;-75
2023/12/20 11:54:21;;;;;;;73.00;31.48;;;;;;;;;;6281025;28;20177;-73
2023/12/20 11:57:24;;;;;;;63.33;29.42;;;;;;;;;;6292147;28;20043;-73
2023/12/20 12:00:27;;;;;;;62.92;29.10;;;;;;;;;;6301729;28;20063;-73
2023/12/20 12:03:29;;;;;;;73.72;33.58;;;;;;;;;;6299941;28;20139;-73
2023/12/20 12:06:31;;;;;;;70.07;29.98;;;;;;;;;;6315034;28;20511;-73
2023/12/20 12:09:34;;;;;;;47.45;23.27;;;;;;;;;;6320935;28;20052;-73
2023/12/20 12:12:37;;;;;;;42.95;20.40;;;;;;;;;;6294053;28;20043;-73
2023/12/20 12:15:39;;;;;;;38.47;19.20;;;;;;;;;;6314997;28;20709;-73
2023/12/20 12:18:41;;;;;;;47.75;22.92;;;;;;;;;;6274501;28;20047;-71
2023/12/20 12:22:13;;;;;;;53.05;23.23;;;;;;;;;;6299782;28;20056;-73
2023/12/20 12:25:22;;;;;;;45.30;23.80;;;;;;;;;;6297347;28;20051;-73
2023/12/20 12:28:32;;;;;;;48.03;18.65;;;;;;;;;;6298556;28;20039;-71
2023/12/20 12:31:35;;;;;;;53.30;22.15;;;;;;;;;;6301923;28;20047;-72
2023/12/20 12:34:37;;;;;;;49.35;22.92;;;;;;;;;;6315256;28;20036;-72
2023/12/20 12:37:40;;;;;;;40.30;19.92;;;;;;;;;;6314272;28;20129;-73
2023/12/20 12:40:43;;;;;;;34.17;17.05;;;;;;;;;;6302055;28;20092;-72
2023/12/20 12:43:45;;;;;;;43.92;19.90;;;;;;;;;;6279384;28;20122;-72
2023/12/20 12:46:50;;;;;;;43.20;20.00;;;;;;;;;;6294181;28;20078;-72
2023/12/20 12:49:53;;;;;;;48.63;20.13;;;;;;;;;;6316716;28;20109;-72
2023/12/20 12:52:55;;;;;;;45.00;19.98;;;;;;;;;;6292035;28;20047;-71
2023/12/20 12:55:57;;;;;;;54.15;23.75;;;;;;;;;;6313465;28;20040;-74
2023/12/20 12:58:59;;;;;;;41.90;21.25;;;;;;;;;;6312324;28;20666;-73
2023/12/20 13:02:01;;;;;;;52.65;21.45;;;;;;;;;;6298224;28;20048;-72
2023/12/20 13:05:04;;;;;;;53.15;23.45;;;;;;;;;;6323987;28;20241;-73
2023/12/20 13:08:07;;;;;;;49.38;21.63;;;;;;;;;;6317184;28;20078;-73
2023/12/20 13:11:13;;;;;;;57.22;24.00;;;;;;;;;;6310301;28;20059;-73
2023/12/20 13:14:16;;;;;;;69.68;27.50;;;;;;;;;;6273734;28;20043;-73
2023/12/20 13:17:18;;;;;;;81.07;41.13;;;;;;;;;;6263286;28;20032;-74
2023/12/20 13:20:21;;;;;;;65.38;29.40;;;;;;;;;;6296219;28;20056;-73
2023/12/20 13:23:24;;;;;;;73.38;28.23;;;;;;;;;;6319422;28;20051;-73
2023/12/20 13:26:26;;;;;;;59.42;24.10;;;;;;;;;;6287755;28;20068;-73
2023/12/20 13:29:28;;;;;;;54.35;25.42;;;;;;;;;;6264360;28;20052;-72
2023/12/20 13:32:30;;;;;;;65.88;28.75;;;;;;;;;;6290715;28;20050;-72
2023/12/20 13:35:34;;;;;;;67.18;25.65;;;;;;;;;;6291204;28;20146;-72
2023/12/20 13:38:37;;;;;;;101.95;40.55;;;;;;;;;;6300498;28;20051;-71
2023/12/20 13:41:39;;;;;;;73.85;28.25;;;;;;;;;;6295398;28;20040;-72
2023/12/20 13:44:44;;;;;;;61.15;23.92;;;;;;;;;;6311954;28;20066;-72
2023/12/20 13:47:46;;;;;;;53.50;23.20;;;;;;;;;;6306371;28;20044;-71
2023/12/20 13:50:48;;;;;;;63.88;24.00;;;;;;;;;;6294949;28;20134;-72
2023/12/20 13:53:50;;;;;;;68.15;21.45;;;;;;;;;;6291635;28;20048;-72
2023/12/20 13:56:52;;;;;;;46.97;20.38;;;;;;;;;;6289100;28;20044;-73
2023/12/20 14:00:14;;;;;;;77.57;25.65;;;;;;;;;;6299033;28;20051;-72
2023/12/20 14:03:16;;;;;;;76.53;36.45;;;;;;;;;;6291426;28;20044;-73
2023/12/20 14:06:19;;;;;;;52.10;23.40;;;;;;;;;;6286610;28;20048;-72
2023/12/20 14:09:23;;;;;;;64.03;23.83;;;;;;;;;;6310465;28;20044;-73
2023/12/20 14:12:25;;;;;;;54.03;21.75;;;;;;;;;;6299738;28;20499;-71
2023/12/20 14:15:28;;;;;;;78.38;29.15;;;;;;;;;;6299140;28;20610;-72
2023/12/20 14:18:31;;;;;;;78.47;20.63;;;;;;;;;;6294111;28;20131;-72
2023/12/20 14:21:34;;;;;;;80.35;22.20;;;;;;;;;;6267867;28;20078;-74
2023/12/20 14:24:36;;;;;;;67.75;25.67;;;;;;;;;;6306963;28;20052;-74
2023/12/20 14:27:39;;;;;;;57.25;23.75;;;;;;;;;;6314024;28;20036;-73
2023/12/20 14:30:41;;;;;;;63.85;25.65;;;;;;;;;;6308017;28;20044;-74
2023/12/20 14:33:43;;;;;;;58.20;20.77;;;;;;;;;;6306238;28;20047;-73
2023/12/20 14:36:46;;;;;;;73.05;27.85;;;;;;;;;;6289092;28;20051;-74
2023/12/20 14:39:49;;;;;;;85.07;30.88;;;;;;;;;;6294627;28;20514;-74
2023/12/20 14:42:51;;;;;;;71.97;27.67;;;;;;;;;;6292797;28;20113;-74
2023/12/20 14:45:53;;;;;;;79.20;31.92;;;;;;;;;;6322245;28;20132;-73
2023/12/20 14:48:55;;;;;;;69.25;32.55;;;;;;;;;;6313093;28;20526;-73
2023/12/20 14:51:58;;;;;;;86.13;29.75;;;;;;;;;;6291946;28;20036;-73
2023/12/20 14:55:02;;;;;;;89.28;32.55;;;;;;;;;;6308809;28;20094;-73
2023/12/20 14:58:05;;;;;;;63.33;22.40;;;;;;;;;;6325194;28;20051;-73
2023/12/20 15:01:08;;;;;;;64.25;21.50;;;;;;;;;;6285477;28;20484;-73
2023/12/20 15:04:11;;;;;;;57.63;20.52;;;;;;;;;;6292934;28;20135;-72
2023/12/20 15:07:13;;;;;;;58.95;22.30;;;;;;;;;;6297089;28;20040;-73
2023/12/20 15:10:16;;;;;;;58.85;22.55;;;;;;;;;;6262601;28;20139;-73
2023/12/20 15:13:20;;;;;;;57.20;22.02;;;;;;;;;;6283154;28;20083;-73
2023/12/20 15:16:23;;;;;;;53.65;21.20;;;;;;;;;;6336196;28;20043;-73
2023/12/20 15:19:25;;;;;;;51.80;19.08;;;;;;;;;;6289462;28;20051;-73
2023/12/20 15:22:28;;;;;;;53.40;20.85;;;;;;;;;;6285218;28;20067;-73
2023/12/20 15:25:30;;;;;;;44.03;21.73;;;;;;;;;;6272443;28;20824;-73
2023/12/20 15:28:33;;;;;;;38.15;17.52;;;;;;;;;;6323712;28;20519;-74
2023/12/20 15:31:37;;;;;;;58.25;20.25;;;;;;;;;;6302558;28;20043;-73
2023/12/20 15:34:39;;;;;;;41.30;17.92;;;;;;;;;;6316980;28;20048;-73
2023/12/20 15:37:41;;;;;;;55.53;20.88;;;;;;;;;;6319266;28;20036;-74
2023/12/20 15:40:44;;;;;;;42.70;17.02;;;;;;;;;;6315965;28;20063;-73
2023/12/20 15:43:46;;;;;;;59.05;21.13;;;;;;;;;;6277036;28;20140;-73
2023/12/20 15:46:48;;;;;;;64.30;26.67;;;;;;;;;;6311905;28;20035;-73
2023/12/20 15:49:50;;;;;;;98.93;36.58;;;;;;;;;;6288642;28;20533;-73
2023/12/20 15:52:52;;;;;;;53.17;24.00;;;;;;;;;;6289434;28;20062;-73
2023/12/20 15:55:54;;;;;;;58.58;22.48;;;;;;;;;;6307670;28;20047;-73
2023/12/20 15:58:57;;;;;;;68.22;25.15;;;;;;;;;;6309339;28;20133;-73
2023/12/20 16:01:59;;;;;;;77.50;30.77;;;;;;;;;;6304827;28;20091;-72
2023/12/20 16:05:02;;;;;;;50.17;22.90;;;;;;;;;;6310252;28;20040;-72
2023/12/20 16:08:04;;;;;;;59.85;23.23;;;;;;;;;;6305889;28;20036;-72
2023/12/20 16:11:07;;;;;;;59.75;25.75;;;;;;;;;;6324607;27;20126;-72
2023/12/20 16:14:13;;;;;;;75.18;29.35;;;;;;;;;;6290071;28;20040;-72
2023/12/20 16:17:16;;;;;;;64.88;28.88;;;;;;;;;;6310668;28;20036;-73
2023/12/20 16:20:18;;;;;;;78.32;26.45;;;;;;;;;;6293174;28;20103;-73
2023/12/20 16:23:22;;;;;;;74.75;32.30;;;;;;;;;;6285673;28;20048;-74
2023/12/20 16:26:24;;;;;;;80.78;34.63;;;;;;;;;;6291321;28;20039;-72
2023/12/20 16:29:25;;;;;;;81.60;33.30;;;;;;;;;;6290613;28;20089;-73
2023/12/20 16:32:27;;;;;;;76.82;38.60;;;;;;;;;;6293610;28;20043;-74
2023/12/20 16:35:30;;;;;;;83.55;34.83;;;;;;;;;;6324094;27;20577;-73
2023/12/20 16:38:32;;;;;;;79.53;29.60;;;;;;;;;;6319857;28;20044;-75
2023/12/20 16:41:34;;;;;;;86.45;29.45;;;;;;;;;;6283034;28;20051;-74
2023/12/20 16:44:36;;;;;;;65.32;24.85;;;;;;;;;;6314620;28;20047;-75
2023/12/20 16:47:38;;;;;;;75.85;30.23;;;;;;;;;;6278209;28;20052;-74
2023/12/20 16:50:40;;;;;;;52.45;23.77;;;;;;;;;;6311955;28;20055;-74
2023/12/20 16:53:42;;;;;;;50.78;21.48;;;;;;;;;;6296470;28;20048;-74
2023/12/20 16:56:44;;;;;;;60.72;24.80;;;;;;;;;;6315143;28;20098;-74
2023/12/20 16:59:47;;;;;;;48.50;22.92;;;;;;;;;;6315421;28;20046;-75
2023/12/20 17:02:50;;;;;;;44.20;22.55;;;;;;;;;;6296350;28;20075;-73
2023/12/20 17:05:52;;;;;;;90.18;40.05;;;;;;;;;;6297792;28;20117;-74
2023/12/20 17:08:54;;;;;;;58.15;26.00;;;;;;;;;;6313945;28;20056;-74
2023/12/20 17:11:56;;;;;;;54.85;23.95;;;;;;;;;;6290534;28;20569;-74
2023/12/20 17:15:00;;;;;;;47.45;22.73;;;;;;;;;;6291202;28;20043;-74
2023/12/20 17:18:05;;;;;;;47.97;19.77;;;;;;;;;;6325897;27;20048;-74
2023/12/20 17:21:08;;;;;;;38.15;20.02;;;;;;;;;;6307490;28;20040;-74
2023/12/20 17:24:10;;;;;;;45.40;21.10;;;;;;;;;;6294829;28;20049;-73
2023/12/20 17:27:12;;;;;;;50.53;21.92;;;;;;;;;;6285827;28;20790;-74
2023/12/20 17:30:15;;;;;;;51.95;19.50;;;;;;;;;;6292177;28;20051;-74
2023/12/20 17:33:18;;;;;;;46.83;23.67;;;;;;;;;;6313612;28;20502;-74
2023/12/20 17:36:21;;;;;;;64.75;29.83;;;;;;;;;;6298623;28;20087;-73
2023/12/20 17:39:24;;;;;;;84.65;37.17;;;;;;;;;;6310934;28;20048;-80
2023/12/20 17:42:26;;;;;;;70.57;32.80;;;;;;;;;;6307716;28;20052;-74